Terminal Aerodrome Forecast
Issued by NWS

Home | Current Version | Previous Version | Text Only | Print | Product List | Glossary On
Versions: 1 2 3 4 5 6 7 8 9 10 11 12
000
FTUS44 KTSA 301100
TAFRVS
TAF
KRVS 301120Z 3012/3112 00000KT P6SM FEW250
     FM301500 22009KT P6SM SKC
     FM301900 34009KT P6SM SKC
     FM310000 36004KT P6SM SKC=

USA.gov is the U.S. government's official web portal to all federal, state and local government web resources and services.